Time;durP1;ratioP1;P1;durP2;ratioP2;P2;SDS_P1;SDS_P2;PMS_P1;PMS_P2;Temp;Humidity;BMP_temperature;BMP_pressure;BME280_temperature;BME280_humidity;BME280_pressure;Samples;Min_cycle;Max_cycle;Signal;HPM_P1;HPM_P2
2022/03/01 00:00:17;;;;;;;0.80;0.50;;;;;;;19.17;35.97;101990.69;5005023;28;20478;-43
2022/03/01 00:02:44;;;;;;;1.05;0.40;;;;;;;19.17;35.72;101963.44;5004681;28;20049;-44
2022/03/01 00:05:10;;;;;;;0.82;0.30;;;;;;;19.15;35.81;101979.47;5006309;28;20025;-43
2022/03/01 00:07:35;;;;;;;0.60;0.40;;;;;;;19.16;35.79;101985.56;5005101;28;20084;-45
2022/03/01 00:10:01;;;;;;;1.48;0.68;;;;;;;19.14;35.61;101966.41;5006877;28;20030;-46
2022/03/01 00:12:27;;;;;;;1.40;0.50;;;;;;;19.15;35.58;101991.84;5005531;28;20080;-43
2022/03/01 00:14:52;;;;;;;1.27;0.40;;;;;;;19.12;35.56;101997.44;5005270;28;20084;-44
2022/03/01 00:17:18;;;;;;;3.25;0.60;;;;;;;19.12;35.46;101989.53;5004595;28;20079;-43
2022/03/01 00:19:43;;;;;;;2.20;0.50;;;;;;;19.11;35.23;101979.94;5005491;28;20041;-43
2022/03/01 00:22:09;;;;;;;1.02;0.43;;;;;;;19.10;35.37;101988.88;5005953;28;20042;-45
2022/03/01 00:24:34;;;;;;;1.83;0.55;;;;;;;19.09;35.39;101985.41;5005998;28;20034;-45
2022/03/01 00:27:00;;;;;;;0.77;0.38;;;;;;;19.08;35.25;101988.19;5006331;28;20084;-43
2022/03/01 00:29:25;;;;;;;1.40;0.60;;;;;;;19.07;35.32;101982.09;5005385;28;20030;-43
2022/03/01 00:31:51;;;;;;;1.27;0.40;;;;;;;19.07;35.33;101978.63;5004114;28;20056;-46
2022/03/01 00:34:16;;;;;;;0.90;0.40;;;;;;;19.04;35.30;101979.78;5004310;28;20168;-43
2022/03/01 00:36:42;;;;;;;1.77;0.40;;;;;;;19.02;35.18;101978.28;5005724;28;20501;-43
2022/03/01 00:39:08;;;;;;;1.45;0.40;;;;;;;19.03;34.89;101978.13;5004929;28;20036;-43
2022/03/01 00:41:34;;;;;;;1.70;0.40;;;;;;;19.02;35.27;101960.63;5003885;28;20049;-44
2022/03/01 00:44:00;;;;;;;1.20;0.35;;;;;;;19.00;34.94;101972.34;5003696;28;20050;-45
2022/03/01 00:46:26;;;;;;;1.52;0.40;;;;;;;18.98;35.12;101967.22;5004606;28;20113;-43
2022/03/01 00:48:56;;;;;;;1.02;0.30;;;;;;;18.99;35.00;101965.41;5019324;28;20438;-43
2022/03/01 00:51:23;;;;;;;1.00;0.55;;;;;;;18.98;35.05;101959.28;5004236;28;20123;-43
2022/03/01 00:53:49;;;;;;;0.90;0.40;;;;;;;18.96;34.95;101960.44;5005857;28;20038;-43
2022/03/01 00:56:14;;;;;;;2.97;0.50;;;;;;;18.94;34.77;101957.13;4998047;28;20034;-43
2022/03/01 00:58:40;;;;;;;1.25;0.50;;;;;;;18.92;34.47;101961.75;5006263;28;20029;-43
2022/03/01 01:01:05;;;;;;;0.88;0.40;;;;;;;18.89;34.45;101955.84;5002544;28;20029;-44
2022/03/01 01:03:31;;;;;;;1.13;0.50;;;;;;;18.89;34.22;101947.09;5006130;28;20034;-45
2022/03/01 01:05:56;;;;;;;1.17;0.35;;;;;;;18.88;34.23;101948.91;5005396;28;20439;-43
2022/03/01 01:08:22;;;;;;;1.23;0.43;;;;;;;18.85;34.38;101928.09;5005610;28;20037;-45
2022/03/01 01:10:48;;;;;;;0.55;0.32;;;;;;;18.84;33.91;101931.72;5005119;28;20030;-45
2022/03/01 01:13:14;;;;;;;3.55;0.55;;;;;;;18.82;33.77;101920.50;5008149;28;20108;-44
2022/03/01 01:15:41;;;;;;;0.60;0.30;;;;;;;18.82;33.73;101917.03;5008244;28;20045;-44
2022/03/01 01:18:07;;;;;;;1.30;0.30;;;;;;;18.83;33.63;101923.97;5007749;28;20057;-44
2022/03/01 01:20:33;;;;;;;1.38;0.40;;;;;;;18.83;33.85;101935.38;5007015;28;20018;-43
2022/03/01 01:22:58;;;;;;;1.13;0.38;;;;;;;18.83;33.76;101945.09;5008838;28;20034;-43
2022/03/01 01:25:25;;;;;;;0.70;0.40;;;;;;;18.82;33.82;101952.19;5008556;28;20022;-44
2022/03/01 01:27:53;;;;;;;2.15;0.50;;;;;;;18.82;33.76;101962.75;5007553;28;20033;-43
2022/03/01 01:30:22;;;;;;;0.93;0.40;;;;;;;18.81;33.95;101990.16;5009488;28;20034;-46
2022/03/01 01:32:48;;;;;;;1.52;0.35;;;;;;;18.81;33.91;101979.59;5006279;28;20029;-44
2022/03/01 01:35:14;;;;;;;1.48;0.40;;;;;;;18.81;33.99;101969.03;5006762;28;20065;-43
2022/03/01 01:37:41;;;;;;;1.05;0.30;;;;;;;18.81;34.09;101973.47;5007483;28;20054;-43
2022/03/01 01:40:10;;;;;;;0.90;0.32;;;;;;;18.80;34.31;101977.94;5008723;28;20164;-43
2022/03/01 01:42:35;;;;;;;0.80;0.30;;;;;;;18.81;34.52;101973.47;5006000;28;20509;-44
2022/03/01 01:45:02;;;;;;;1.85;0.40;;;;;;;18.80;34.69;101975.28;5009155;28;20067;-43
2022/03/01 01:47:27;;;;;;;0.82;0.32;;;;;;;18.79;34.75;101981.56;5005945;28;20091;-46
2022/03/01 01:49:53;;;;;;;0.80;0.40;;;;;;;18.79;34.90;101986.00;5008956;28;20046;-44
2022/03/01 01:52:19;;;;;;;1.10;0.30;;;;;;;18.79;34.89;101976.28;5007570;28;20037;-45
2022/03/01 01:54:44;;;;;;;0.70;0.30;;;;;;;18.77;34.97;101994.09;5008610;28;20507;-44
2022/03/01 01:57:18;;;;;;;1.98;0.30;;;;;;;18.75;34.87;101974.13;5007024;28;20034;-45
2022/03/01 01:59:44;;;;;;;0.68;0.32;;;;;;;18.76;34.80;101983.69;5008025;28;20034;-45
2022/03/01 02:02:12;;;;;;;0.70;0.30;;;;;;;18.76;35.03;101966.03;5020551;28;20037;-46
2022/03/01 02:04:37;;;;;;;1.20;0.30;;;;;;;18.74;35.04;101973.28;5007514;28;20049;-47
2022/03/01 02:07:03;;;;;;;0.80;0.30;;;;;;;18.75;35.09;101969.66;5008062;28;20073;-44
2022/03/01 02:09:28;;;;;;;3.17;0.30;;;;;;;18.74;34.99;101978.56;5007059;28;20049;-45
2022/03/01 02:11:54;;;;;;;1.35;0.30;;;;;;;18.73;34.93;101970.81;5329048;22;20402;-42
2022/03/01 02:14:19;;;;;;;1.48;0.50;;;;;;;18.70;34.92;101981.69;4969786;28;20482;-45
2022/03/01 02:16:45;;;;;;;1.83;0.25;;;;;;;18.68;34.84;101986.31;4970120;28;20039;-43
2022/03/01 02:19:12;;;;;;;0.90;0.40;;;;;;;18.67;34.94;101990.75;4969852;28;20039;-43
2022/03/01 02:21:52;;;;;;;0.73;0.30;;;;;;;18.64;34.86;102003.44;4970030;28;20033;-44
2022/03/01 02:24:19;;;;;;;0.65;0.30;;;;;;;18.65;34.87;101987.44;4969168;28;20023;-43
2022/03/01 02:26:45;;;;;;;1.02;0.40;;;;;;;18.65;34.92;101984.81;4970168;28;20035;-44
2022/03/01 02:29:10;;;;;;;0.85;0.30;;;;;;;18.65;34.94;102000.66;4969998;28;20359;-43
2022/03/01 02:31:36;;;;;;;1.13;0.40;;;;;;;18.65;34.88;101994.53;4952122;28;20430;-44
2022/03/01 02:34:02;;;;;;;1.30;0.30;;;;;;;18.64;34.93;101983.16;4969726;28;20129;-43
2022/03/01 02:36:28;;;;;;;0.90;0.40;;;;;;;18.65;35.02;101990.09;4969580;28;20050;-44
2022/03/01 02:38:53;;;;;;;1.48;0.30;;;;;;;18.63;35.00;101992.06;4969509;28;20035;-46
2022/03/01 02:41:18;;;;;;;0.93;0.30;;;;;;;18.63;35.25;101994.72;4969713;28;20079;-46
2022/03/01 02:43:44;;;;;;;2.15;0.30;;;;;;;18.62;35.00;101998.34;4969463;28;20105;-44
2022/03/01 02:46:09;;;;;;;0.80;0.30;;;;;;;18.62;34.73;101979.84;4969517;28;20117;-42
2022/03/01 02:48:35;;;;;;;0.60;0.30;;;;;;;18.61;35.05;101988.75;4969247;28;20026;-44
2022/03/01 02:51:00;;;;;;;0.60;0.30;;;;;;;18.60;34.89;101987.09;4969433;28;20482;-44
2022/03/01 02:53:26;;;;;;;0.90;0.32;;;;;;;18.60;34.91;101986.25;4975196;28;20031;-45
2022/03/01 02:55:51;;;;;;;1.50;0.30;;;;;;;18.59;34.75;101985.41;4978741;28;20422;-47
2022/03/01 02:58:17;;;;;;;0.77;0.30;;;;;;;18.56;34.88;101981.28;4975012;28;20089;-44
2022/03/01 03:00:44;;;;;;;1.08;0.50;;;;;;;18.56;34.88;101986.56;4977275;28;20026;-44
2022/03/01 03:03:11;;;;;;;1.60;0.40;;;;;;;18.56;34.85;101980.47;4986978;28;20478;-45
2022/03/01 03:05:37;;;;;;;0.80;0.30;;;;;;;18.54;34.87;101977.16;4985722;28;20106;-48
2022/03/01 03:08:03;;;;;;;0.80;0.30;;;;;;;18.52;34.79;101979.94;4969419;28;20464;-44
2022/03/01 03:10:28;;;;;;;0.80;0.20;;;;;;;18.50;34.86;101973.19;4969294;28;20097;-44
2022/03/01 03:12:54;;;;;;;1.02;0.25;;;;;;;18.49;34.87;101980.25;4969328;28;20038;-43
2022/03/01 03:15:19;;;;;;;0.98;0.30;;;;;;;18.49;34.75;101982.09;4969310;28;20307;-46
2022/03/01 03:17:45;;;;;;;0.68;0.28;;;;;;;18.47;35.02;101981.41;4969757;28;20125;-46
2022/03/01 03:20:10;;;;;;;0.73;0.30;;;;;;;18.45;34.92;101978.94;4978974;28;20066;-43
2022/03/01 03:22:36;;;;;;;0.90;0.30;;;;;;;18.44;34.95;101982.56;4971245;28;20364;-45
2022/03/01 03:25:03;;;;;;;0.77;0.20;;;;;;;18.44;34.95;101985.19;4971675;28;20031;-44
2022/03/01 03:27:28;;;;;;;1.23;0.30;;;;;;;18.43;34.83;101980.09;4980935;28;20041;-44
2022/03/01 03:29:53;;;;;;;0.65;0.30;;;;;;;18.41;34.89;101975.00;4976779;28;20039;-44
2022/03/01 03:32:19;;;;;;;0.70;0.30;;;;;;;18.38;34.94;101975.31;4980153;28;20433;-45
2022/03/01 03:34:44;;;;;;;0.68;0.30;;;;;;;18.38;35.00;101982.38;4985419;28;20464;-51
2022/03/01 03:37:10;;;;;;;1.10;0.32;;;;;;;18.39;35.08;101970.84;4972272;28;20362;-45
2022/03/01 03:39:35;;;;;;;1.65;0.43;;;;;;;18.41;35.15;101966.25;4986745;28;20038;-44
2022/03/01 03:42:01;;;;;;;4.18;1.08;;;;;;;18.41;35.13;101966.25;4977395;28;20034;-46
2022/03/01 03:44:26;;;;;;;4.78;0.43;;;;;;;18.42;35.12;101976.63;4980575;28;20070;-45
2022/03/01 03:46:52;;;;;;;1.67;0.40;;;;;;;18.43;35.07;101972.19;4971550;28;20394;-44
2022/03/01 03:49:19;;;;;;;3.45;0.40;;;;;;;18.43;35.20;101977.47;4976719;28;20022;-45
2022/03/01 03:51:45;;;;;;;1.80;0.30;;;;;;;18.43;35.03;101975.63;4975330;28;20038;-43
2022/03/01 03:54:11;;;;;;;7.50;0.60;;;;;;;18.43;35.08;101983.53;4983777;28;20675;-44
2022/03/01 03:56:36;;;;;;;0.85;0.30;;;;;;;18.44;35.16;101976.44;4968541;28;20023;-44
2022/03/01 03:59:02;;;;;;;3.53;0.40;;;;;;;18.44;35.08;101981.72;4976415;28;20201;-43
2022/03/01 04:01:28;;;;;;;1.48;0.43;;;;;;;18.44;35.01;101973.81;4982207;28;20530;-45
2022/03/01 04:03:53;;;;;;;2.08;0.30;;;;;;;18.43;35.15;101980.09;4968626;28;20042;-47
2022/03/01 04:06:19;;;;;;;1.40;0.30;;;;;;;18.43;35.08;101988.03;4971146;28;20034;-48
2022/03/01 04:08:44;;;;;;;0.95;0.30;;;;;;;18.42;35.13;101978.44;4986190;28;20022;-44
2022/03/01 04:11:10;;;;;;;2.58;0.40;;;;;;;18.41;35.02;101987.34;4969877;28;20042;-45
2022/03/01 04:13:35;;;;;;;1.58;0.30;;;;;;;18.41;35.15;101987.34;4977881;28;20046;-47
2022/03/01 04:16:02;;;;;;;0.70;0.28;;;;;;;18.38;35.21;101977.94;4985441;28;20058;-48
2022/03/01 04:18:28;;;;;;;0.82;0.30;;;;;;;18.37;35.11;101984.22;4975537;28;20413;-44
2022/03/01 04:20:53;;;;;;;1.42;0.30;;;;;;;18.36;35.19;101989.63;4974896;28;20038;-44
2022/03/01 04:23:19;;;;;;;1.20;0.30;;;;;;;18.35;35.04;101980.91;4985379;28;20045;-43
2022/03/01 04:25:44;;;;;;;1.40;0.30;;;;;;;18.34;35.10;101979.25;4973486;28;20035;-43
2022/03/01 04:28:10;;;;;;;0.80;0.25;;;;;;;18.32;35.06;101977.75;4975166;28;20084;-44
2022/03/01 04:30:35;;;;;;;2.08;0.43;;;;;;;18.30;35.19;101980.53;4975050;28;20031;-43
2022/03/01 04:33:01;;;;;;;0.80;0.30;;;;;;;18.28;35.16;101974.59;4975371;28;20417;-46
2022/03/01 04:35:27;;;;;;;1.25;0.70;;;;;;;18.27;35.21;101975.59;4976033;28;20023;-42
2022/03/01 04:37:53;;;;;;;0.75;0.45;;;;;;;18.24;35.09;101971.44;4981413;28;20054;-43
2022/03/01 04:40:19;;;;;;;2.92;0.60;;;;;;;18.23;35.13;101964.50;4978250;28;20114;-44
2022/03/01 04:42:45;;;;;;;0.98;0.30;;;;;;;18.21;35.31;101974.41;4974633;28;20030;-44
2022/03/01 04:45:11;;;;;;;1.20;0.40;;;;;;;18.19;35.09;101968.44;4968272;28;20180;-44
2022/03/01 04:47:37;;;;;;;1.50;0.30;;;;;;;18.21;35.22;101971.75;4971549;28;20038;-43
2022/03/01 04:50:05;;;;;;;0.80;0.40;;;;;;;18.22;35.09;101965.50;4985941;28;20507;-45
2022/03/01 04:52:31;;;;;;;0.50;0.28;;;;;;;18.23;35.19;101969.78;4972300;28;20126;-44
2022/03/01 04:54:56;;;;;;;2.00;0.38;;;;;;;18.23;35.09;101961.88;4967299;28;20045;-43
2022/03/01 04:57:22;;;;;;;2.00;0.30;;;;;;;18.23;34.94;101961.88;4975266;28;20042;-44
2022/03/01 04:59:47;;;;;;;1.30;0.40;;;;;;;18.23;35.21;101956.59;4984853;28;20483;-44
2022/03/01 05:02:13;;;;;;;1.02;0.32;;;;;;;18.23;35.16;101961.88;4978728;28;20034;-46
2022/03/01 05:04:38;;;;;;;0.80;0.30;;;;;;;18.22;35.19;101957.59;4971890;28;20155;-44
2022/03/01 05:07:04;;;;;;;1.00;0.30;;;;;;;18.21;35.34;101950.66;4971722;28;20042;-45
2022/03/01 05:09:29;;;;;;;0.60;0.30;;;;;;;18.22;35.27;101957.59;4986720;28;20043;-43
2022/03/01 05:11:55;;;;;;;0.60;0.40;;;;;;;18.23;35.32;101964.50;4977124;28;20074;-44
2022/03/01 05:14:20;;;;;;;0.68;0.30;;;;;;;18.26;35.28;101963.38;4971602;28;20035;-47
2022/03/01 05:16:46;;;;;;;2.38;0.30;;;;;;;18.26;35.15;101958.09;4988987;28;20030;-43
2022/03/01 05:19:13;;;;;;;1.15;0.30;;;;;;;18.30;35.22;101958.59;4973480;28;20043;-43
2022/03/01 05:21:39;;;;;;;0.60;0.25;;;;;;;18.32;35.22;101957.47;4978834;28;20031;-47
2022/03/01 05:24:05;;;;;;;1.40;0.30;;;;;;;18.34;35.14;101954.66;4976316;28;20077;-43
2022/03/01 05:26:31;;;;;;;1.33;0.50;;;;;;;18.38;35.21;101958.66;4988126;28;20030;-44
2022/03/01 05:28:57;;;;;;;1.02;0.40;;;;;;;18.42;35.16;101962.63;4982035;28;20062;-43
2022/03/01 05:31:23;;;;;;;1.02;0.30;;;;;;;18.45;35.11;101965.75;4973958;28;20085;-44
2022/03/01 05:33:49;;;;;;;0.85;0.40;;;;;;;18.49;35.06;101958.31;4974217;28;20042;-43
2022/03/01 05:36:15;;;;;;;0.93;0.40;;;;;;;18.53;35.03;101957.84;4988154;28;20037;-44
2022/03/01 05:38:42;;;;;;;0.90;0.40;;;;;;;18.57;34.95;101968.91;4978435;28;20820;-42
2022/03/01 05:41:08;;;;;;;1.23;0.40;;;;;;;18.61;34.73;101972.91;4970964;28;20046;-45
2022/03/01 05:43:34;;;;;;;1.00;0.40;;;;;;;18.66;34.81;101975.91;4968379;28;20030;-46
2022/03/01 05:46:00;;;;;;;0.95;0.30;;;;;;;18.71;34.77;101970.16;4977335;28;20133;-43
2022/03/01 05:48:26;;;;;;;0.80;0.20;;;;;;;18.76;34.75;101971.31;4985718;28;20117;-42
2022/03/01 05:50:52;;;;;;;1.77;0.77;;;;;;;18.82;34.71;101970.69;4970828;28;20023;-48
2022/03/01 05:53:19;;;;;;;1.77;0.30;;;;;;;18.88;34.75;101972.66;4983469;28;20528;-45
2022/03/01 05:55:44;;;;;;;1.02;0.30;;;;;;;18.95;34.69;101972.00;4971741;28;20038;-43
2022/03/01 05:58:10;;;;;;;0.88;0.30;;;;;;;19.00;34.70;101972.34;4969347;28;20033;-42
2022/03/01 06:00:36;;;;;;;0.77;0.40;;;;;;;19.06;34.62;101967.22;4976598;28;20027;-42
2022/03/01 06:03:01;;;;;;;0.90;0.30;;;;;;;19.13;34.55;101967.41;4982743;28;20035;-42
2022/03/01 06:05:28;;;;;;;3.50;0.40;;;;;;;19.21;34.46;101957.66;4976351;28;20034;-44
2022/03/01 06:07:54;;;;;;;0.73;0.30;;;;;;;19.28;34.48;101954.38;4977262;28;20070;-44
2022/03/01 06:10:20;;;;;;;0.60;0.20;;;;;;;19.34;34.45;101959.00;4982557;28;20062;-46
2022/03/01 06:12:45;;;;;;;1.30;0.30;;;;;;;19.40;34.32;101961.78;4980121;28;20078;-42
2022/03/01 06:15:11;;;;;;;1.10;0.30;;;;;;;19.45;34.23;101961.28;4975928;28;20137;-42
2022/03/01 06:17:37;;;;;;;0.60;0.25;;;;;;;19.49;34.28;101957.31;4980190;28;20030;-44
2022/03/01 06:20:03;;;;;;;1.80;0.20;;;;;;;19.53;34.24;101956.84;4960866;28;20118;-42
2022/03/01 06:22:29;;;;;;;1.15;0.30;;;;;;;19.55;34.22;101956.69;4980282;28;20538;-44
2022/03/01 06:24:55;;;;;;;0.95;0.28;;;;;;;19.57;34.25;101961.81;4979247;28;20117;-43
2022/03/01 06:27:22;;;;;;;1.10;0.30;;;;;;;19.58;34.35;101961.63;4982832;28;20398;-43
2022/03/01 06:29:47;;;;;;;2.45;0.38;;;;;;;19.62;34.42;101964.78;4985459;28;20169;-44
2022/03/01 06:32:13;;;;;;;2.78;0.32;;;;;;;19.64;34.27;101970.72;4984455;28;20118;-42
2022/03/01 06:34:38;;;;;;;0.85;0.20;;;;;;;19.66;34.34;101968.72;4983710;28;20165;-46
2022/03/01 06:37:04;;;;;;;0.90;0.30;;;;;;;19.67;34.28;101973.03;4983421;28;20033;-44
2022/03/01 06:39:30;;;;;;;2.28;0.40;;;;;;;19.69;34.25;101965.75;4970268;28;20030;-42
2022/03/01 06:41:56;;;;;;;0.80;0.30;;;;;;;19.72;34.22;101974.19;4957344;28;20042;-43
2022/03/01 06:44:21;;;;;;;1.15;0.40;;;;;;;19.74;34.25;101974.84;4982089;28;20541;-43
2022/03/01 06:46:47;;;;;;;1.60;0.35;;;;;;;19.76;34.30;101974.66;4976448;28;20042;-44
2022/03/01 06:49:13;;;;;;;1.08;0.30;;;;;;;19.79;34.41;101979.63;4970716;28;20030;-42
2022/03/01 06:51:38;;;;;;;1.00;0.30;;;;;;;19.80;34.30;101976.00;4977348;28;20041;-43
2022/03/01 06:54:04;;;;;;;0.90;0.60;;;;;;;19.81;34.50;101969.72;4973606;28;20057;-42
2022/03/01 06:56:29;;;;;;;2.88;0.30;;;;;;;19.84;34.29;101972.84;4986553;28;20034;-48
2022/03/01 06:58:55;;;;;;;1.13;0.30;;;;;;;19.85;34.37;101971.81;4971692;28;20381;-44
2022/03/01 07:01:20;;;;;;;1.40;0.30;;;;;;;19.87;34.28;101971.66;4977337;28;20169;-45
2022/03/01 07:03:46;;;;;;;0.60;0.35;;;;;;;19.88;34.27;101968.84;4982989;28;20023;-44
2022/03/01 07:06:12;;;;;;;1.73;0.30;;;;;;;19.89;34.44;101953.78;4976800;28;20165;-44
2022/03/01 07:08:38;;;;;;;0.98;0.30;;;;;;;19.89;34.37;101964.38;4986166;28;20026;-44
2022/03/01 07:11:03;;;;;;;0.82;0.40;;;;;;;19.91;34.46;101958.91;4974655;28;20041;-45
2022/03/01 07:13:29;;;;;;;1.70;0.40;;;;;;;19.91;34.63;101962.38;4980614;28;20058;-46
2022/03/01 07:15:55;;;;;;;0.63;0.30;;;;;;;19.89;34.61;101964.38;4982972;28;20030;-47
2022/03/01 07:18:20;;;;;;;0.70;0.30;;;;;;;19.87;34.51;101966.34;4977734;28;20363;-44
2022/03/01 07:20:45;;;;;;;2.47;0.30;;;;;;;19.83;34.58;101968.53;4986321;28;20501;-43
2022/03/01 07:23:11;;;;;;;1.02;0.30;;;;;;;19.82;34.83;101972.19;4976580;28;20022;-42
2022/03/01 07:25:38;;;;;;;1.67;0.30;;;;;;;19.81;34.90;101961.78;4982529;28;20038;-45
2022/03/01 07:28:04;;;;;;;0.77;0.30;;;;;;;19.80;34.57;101960.13;4975643;28;20551;-46
2022/03/01 07:30:30;;;;;;;3.67;0.47;;;;;;;19.78;34.88;101957.66;4976038;28;20677;-42
2022/03/01 07:32:57;;;;;;;1.25;0.40;;;;;;;19.79;34.92;101971.69;4974702;28;20088;-44
2022/03/01 07:35:23;;;;;;;4.88;0.32;;;;;;;19.79;34.95;101969.88;4982739;28;20294;-44
2022/03/01 07:37:50;;;;;;;2.67;0.40;;;;;;;19.83;34.98;101967.72;4980321;28;20117;-44
2022/03/01 07:40:17;;;;;;;1.83;0.40;;;;;;;19.85;35.08;101963.06;4975994;28;20066;-42
2022/03/01 07:42:43;;;;;;;2.40;0.40;;;;;;;19.82;35.00;101961.59;4976583;28;20096;-44
2022/03/01 07:45:09;;;;;;;2.10;0.50;;;;;;;19.81;34.99;101969.72;4968582;28;20031;-42
2022/03/01 07:47:35;;;;;;;1.45;0.40;;;;;;;19.80;34.96;101978.63;4950840;28;20490;-42
2022/03/01 07:50:02;;;;;;;2.75;0.40;;;;;;;19.77;34.90;101971.84;4972565;28;20105;-43
2022/03/01 07:52:27;;;;;;;1.10;0.40;;;;;;;19.75;35.25;101970.38;4981448;28;20026;-43
2022/03/01 07:54:53;;;;;;;0.68;0.30;;;;;;;19.73;35.14;101965.25;4980052;28;20038;-44
2022/03/01 07:57:19;;;;;;;0.98;0.38;;;;;;;19.72;35.25;101950.38;4982283;28;20144;-43
2022/03/01 07:59:44;;;;;;;2.33;0.43;;;;;;;19.72;35.15;101952.19;4984493;28;20495;-43
2022/03/01 08:02:10;;;;;;;1.05;0.30;;;;;;;19.72;35.07;101954.84;4977273;28;20390;-43
2022/03/01 08:04:37;;;;;;;2.17;0.40;;;;;;;19.71;35.01;101945.25;4979487;28;20045;-43
2022/03/01 08:07:03;;;;;;;1.00;0.30;;;;;;;19.71;35.05;101940.78;4969438;28;20483;-44
2022/03/01 08:09:29;;;;;;;1.33;0.73;;;;;;;19.73;35.11;101945.91;4953393;28;20130;-43
2022/03/01 08:11:55;;;;;;;1.00;0.40;;;;;;;19.72;34.96;101944.28;4974759;28;20058;-43
2022/03/01 08:14:20;;;;;;;0.68;0.28;;;;;;;19.71;34.93;101947.91;4973894;28;20034;-43
2022/03/01 08:16:46;;;;;;;0.60;0.20;;;;;;;19.71;34.86;101945.25;4975205;28;20026;-43
2022/03/01 08:19:11;;;;;;;2.25;0.50;;;;;;;19.71;34.94;101939.97;4978084;28;20031;-42
2022/03/01 08:21:37;;;;;;;4.68;0.40;;;;;;;19.68;34.89;101943.78;4979972;28;20579;-40
2022/03/01 08:24:03;;;;;;;2.55;0.40;;;;;;;19.72;35.20;101936.34;4974051;28;20030;-41
2022/03/01 08:26:28;;;;;;;5.60;0.50;;;;;;;19.74;35.64;101935.19;4972114;28;20046;-42
2022/03/01 08:28:53;;;;;;;2.00;0.40;;;;;;;19.78;35.78;101947.06;4973536;28;20038;-42
2022/03/01 08:31:19;;;;;;;4.22;0.60;;;;;;;19.79;35.96;101938.13;4972750;28;20118;-47
2022/03/01 08:33:45;;;;;;;4.35;0.40;;;;;;;19.79;36.29;101945.25;4971814;28;20026;-44
2022/03/01 08:36:14;;;;;;;2.10;0.40;;;;;;;19.74;36.67;101944.94;4970521;28;20141;-44
2022/03/01 08:38:41;;;;;;;3.05;0.32;;;;;;;19.68;36.82;101949.06;4976022;28;20064;-42
2022/03/01 08:41:07;;;;;;;5.03;0.63;;;;;;;19.64;37.23;101939.81;4976261;28;20105;-42
2022/03/01 08:43:32;;;;;;;2.90;0.40;;;;;;;19.62;37.19;101951.56;4982221;28;20430;-42
2022/03/01 08:45:58;;;;;;;2.75;0.68;;;;;;;19.60;37.40;101950.91;4982155;28;20042;-45
2022/03/01 08:48:25;;;;;;;5.70;0.63;;;;;;;19.57;37.50;101941.47;4980196;28;20534;-46
2022/03/01 08:50:51;;;;;;;2.17;0.30;;;;;;;19.60;37.20;101948.25;4974705;28;20105;-42
2022/03/01 08:53:19;;;;;;;2.85;0.32;;;;;;;19.62;37.28;101940.97;4977819;28;20030;-43
2022/03/01 08:55:46;;;;;;;2.15;0.40;;;;;;;19.62;37.21;101944.44;4977931;28;20034;-49
2022/03/01 08:58:12;;;;;;;2.40;0.70;;;;;;;19.62;37.12;101940.97;4969869;28;20137;-49
2022/03/01 09:00:37;;;;;;;0.95;0.30;;;;;;;19.59;37.06;101936.03;4977481;28;20331;-44
2022/03/01 09:03:03;;;;;;;3.97;0.35;;;;;;;19.55;36.99;101931.06;4974049;28;20088;-46
2022/03/01 09:05:29;;;;;;;2.30;0.35;;;;;;;19.53;36.74;101934.88;4972675;28;20472;-41
2022/03/01 09:07:55;;;;;;;2.55;0.40;;;;;;;19.49;37.02;101938.81;4973565;28;20486;-42
2022/03/01 09:10:23;;;;;;;1.88;0.40;;;;;;;19.47;36.59;101935.50;4976334;28;20098;-45
2022/03/01 09:12:51;;;;;;;1.55;0.40;;;;;;;19.44;36.35;101933.19;4975512;28;20042;-44
2022/03/01 09:15:17;;;;;;;1.40;0.43;;;;;;;19.42;35.85;101932.53;4977332;28;20097;-45
2022/03/01 09:17:43;;;;;;;3.42;0.70;;;;;;;19.40;35.18;101922.13;4975035;28;20036;-43
2022/03/01 09:20:09;;;;;;;1.75;0.50;;;;;;;19.38;35.15;101924.13;4978366;28;20023;-50
2022/03/01 09:22:35;;;;;;;1.23;0.55;;;;;;;19.34;35.05;101922.81;4969726;28;20446;-52
2022/03/01 09:25:02;;;;;;;2.05;0.45;;;;;;;19.32;34.82;101919.53;4978644;28;20023;-45
2022/03/01 09:27:27;;;;;;;1.33;0.40;;;;;;;19.30;34.89;101921.50;4977332;28;20038;-40
2022/03/01 09:29:53;;;;;;;2.80;0.50;;;;;;;19.28;35.19;101923.50;4976040;28;20030;-45
2022/03/01 09:32:18;;;;;;;1.75;0.68;;;;;;;19.27;34.80;101924.47;4977565;28;20050;-39
2022/03/01 09:34:44;;;;;;;1.30;0.63;;;;;;;19.27;35.01;101921.84;4973699;28;20106;-42
2022/03/01 09:37:09;;;;;;;3.05;1.13;;;;;;;19.28;33.87;101912.09;4976401;28;20422;-44
2022/03/01 09:39:35;;;;;;;8.75;0.90;;;;;;;19.30;33.74;101921.50;4975442;28;20101;-42
2022/03/01 09:42:00;;;;;;;3.00;0.90;;;;;;;19.28;33.96;101918.19;4982104;28;20037;-51
2022/03/01 09:44:26;;;;;;;10.75;0.80;;;;;;;19.26;33.75;101914.91;4975822;28;20022;-44
2022/03/01 09:46:52;;;;;;;3.60;0.80;;;;;;;19.25;33.81;101912.44;4983968;28;20034;-44
2022/03/01 09:49:18;;;;;;;14.55;1.23;;;;;;;19.26;33.84;101909.63;4981182;28;20066;-44
2022/03/01 09:51:45;;;;;;;4.55;0.93;;;;;;;19.26;33.86;101909.63;4983131;28;20450;-45
2022/03/01 09:54:10;;;;;;;10.02;1.20;;;;;;;19.26;33.81;101914.06;4981837;28;20124;-49
2022/03/01 09:56:36;;;;;;;4.60;0.68;;;;;;;19.26;33.90;101914.06;4977370;28;20255;-39
2022/03/01 09:59:02;;;;;;;5.38;1.05;;;;;;;19.27;33.88;101916.56;4974171;28;20030;-43
2022/03/01 10:01:28;;;;;;;9.75;0.70;;;;;;;19.26;33.98;101914.91;4982183;28;20038;-46
2022/03/01 10:04:09;;;;;;;8.57;0.57;;;;;;;19.24;34.00;101908.97;4968189;28;20051;-49
2022/03/01 10:06:41;;;;;;;5.75;0.47;;;;;;;19.25;34.10;101915.06;4982334;28;20111;-47
2022/03/01 10:09:22;;;;;;;6.32;0.70;;;;;;;19.24;34.14;101908.97;4980268;28;20034;-45
2022/03/01 10:11:48;;;;;;;3.97;0.47;;;;;;;19.25;34.10;101902.69;4953448;28;20461;-44
2022/03/01 10:14:15;;;;;;;4.07;0.70;;;;;;;19.23;34.20;101908.13;4962082;28;20130;-50
2022/03/01 10:16:43;;;;;;;4.53;0.50;;;;;;;19.23;34.16;101909.94;4966389;28;20031;-39
2022/03/01 10:19:20;;;;;;;1.55;0.43;;;;;;;19.22;34.31;101905.66;4970155;28;20029;-44
2022/03/01 10:21:56;;;;;;;4.68;0.50;;;;;;;19.20;34.34;101900.53;4972039;28;20034;-47
2022/03/01 10:24:22;;;;;;;1.67;0.50;;;;;;;19.20;34.48;101900.53;4958330;28;20105;-44
2022/03/01 10:26:49;;;;;;;1.95;0.47;;;;;;;19.20;34.41;101899.72;4981615;28;20498;-42
2022/03/01 10:29:16;;;;;;;2.70;0.50;;;;;;;19.21;34.57;101901.34;4969300;28;20391;-41
2022/03/01 10:31:42;;;;;;;3.75;0.68;;;;;;;19.20;34.47;101899.72;4983075;28;20703;-43
2022/03/01 10:34:11;;;;;;;3.28;0.57;;;;;;;19.19;34.43;101887.50;4977389;28;20069;-42
2022/03/01 10:36:48;;;;;;;1.40;0.50;;;;;;;19.14;34.46;101887.97;4983437;28;20130;-43
2022/03/01 10:39:19;;;;;;;1.67;0.40;;;;;;;19.15;34.57;101883.53;4976638;28;20580;-45
2022/03/01 10:41:50;;;;;;;3.03;0.43;;;;;;;19.12;34.61;101881.22;4977583;28;20110;-44
2022/03/01 10:44:16;;;;;;;3.42;0.60;;;;;;;19.13;34.72;101880.22;4985558;28;20022;-47
2022/03/01 10:46:46;;;;;;;1.20;0.40;;;;;;;19.11;34.57;101874.28;4971151;28;20801;-45
2022/03/01 10:49:17;;;;;;;3.58;0.52;;;;;;;19.09;34.72;101869.16;4980008;28;20033;-45
2022/03/01 10:51:54;;;;;;;2.13;0.47;;;;;;;19.08;34.73;101867.50;4986413;28;20049;-45
2022/03/01 10:54:34;;;;;;;2.03;0.55;;;;;;;19.05;34.94;101865.19;4980042;28;20030;-47
2022/03/01 10:57:02;;;;;;;1.90;0.43;;;;;;;19.07;34.95;101857.13;4983766;28;20047;-41
2022/03/01 10:59:30;;;;;;;1.35;0.43;;;;;;;19.07;35.08;101867.69;4975171;28;20031;-42
2022/03/01 11:01:56;;;;;;;1.00;0.40;;;;;;;19.06;35.12;101856.28;4978570;28;20057;-44
2022/03/01 11:04:24;;;;;;;1.27;0.40;;;;;;;19.07;35.24;101854.47;4984940;28;20022;-45
2022/03/01 11:06:50;;;;;;;5.38;0.70;;;;;;;19.05;35.38;101853.81;4952631;28;20452;-44
2022/03/01 11:09:17;;;;;;;1.02;0.30;;;;;;;19.05;35.44;101845.88;4984305;28;20093;-47
2022/03/01 11:11:43;;;;;;;3.28;0.45;;;;;;;19.04;35.45;101836.31;4980032;28;20034;-43
2022/03/01 11:14:18;;;;;;;1.40;0.38;;;;;;;19.01;35.34;101837.47;4978111;28;20557;-44
2022/03/01 11:17:12;;;;;;;2.05;0.30;;;;;;;18.99;35.61;101833.34;4981843;28;20030;-39
2022/03/01 11:20:00;;;;;;;1.38;0.40;;;;;;;18.97;35.48;101822.94;4955177;28;20058;-43